sensor_id;sensor_type;location;lat;lon;timestamp;temperature;humidity
7476;DHT22;3779;49.216;8.650;2023-12-14T00:02:01;20.70;54.70
7476;DHT22;3779;49.216;8.650;2023-12-14T00:04:47;20.60;54.40
7476;DHT22;3779;49.216;8.650;2023-12-14T00:07:33;20.30;54.30
7476;DHT22;3779;49.216;8.650;2023-12-14T00:10:19;20.30;54.20
7476;DHT22;3779;49.216;8.650;2023-12-14T00:13:05;20.70;54.00
7476;DHT22;3779;49.216;8.650;2023-12-14T00:15:53;20.30;53.80
7476;DHT22;3779;49.216;8.650;2023-12-14T00:18:38;20.30;53.80
7476;DHT22;3779;49.216;8.650;2023-12-14T00:21:24;20.70;54.60
7476;DHT22;3779;49.216;8.650;2023-12-14T01:19:51;19.80;52.50
7476;DHT22;3779;49.216;8.650;2023-12-14T02:52:24;20.10;53.30
7476;DHT22;3779;49.216;8.650;2023-12-14T02:55:10;20.10;54.70
7476;DHT22;3779;49.216;8.650;2023-12-14T02:57:56;20.10;54.40
7476;DHT22;3779;49.216;8.650;2023-12-14T03:00:41;20.50;54.20
7476;DHT22;3779;49.216;8.650;2023-12-14T03:03:27;20.20;54.50
7476;DHT22;3779;49.216;8.650;2023-12-14T03:06:13;20.30;54.50
7476;DHT22;3779;49.216;8.650;2023-12-14T03:09:00;20.60;54.80
7476;DHT22;3779;49.216;8.650;2023-12-14T03:11:46;20.30;54.30
7476;DHT22;3779;49.216;8.650;2023-12-14T03:14:32;20.30;54.20
7476;DHT22;3779;49.216;8.650;2023-12-14T03:17:19;20.30;54.20
7476;DHT22;3779;49.216;8.650;2023-12-14T03:20:05;20.70;53.90
7476;DHT22;3779;49.216;8.650;2023-12-14T03:22:51;20.40;53.00
7476;DHT22;3779;49.216;8.650;2023-12-14T03:25:38;20.30;52.90
7476;DHT22;3779;49.216;8.650;2023-12-14T03:28:23;20.30;53.10
7476;DHT22;3779;49.216;8.650;2023-12-14T03:31:13;20.30;53.10
7476;DHT22;3779;49.216;8.650;2023-12-14T03:33:59;20.30;53.20
7476;DHT22;3779;49.216;8.650;2023-12-14T03:36:44;20.30;53.40
7476;DHT22;3779;49.216;8.650;2023-12-14T03:39:30;20.30;53.40
7476;DHT22;3779;49.216;8.650;2023-12-14T03:42:16;20.30;53.20
7476;DHT22;3779;49.216;8.650;2023-12-14T03:45:01;20.30;53.10
7476;DHT22;3779;49.216;8.650;2023-12-14T03:47:47;20.60;54.00
7476;DHT22;3779;49.216;8.650;2023-12-14T03:50:33;20.30;53.80
7476;DHT22;3779;49.216;8.650;2023-12-14T03:53:19;20.60;53.10
7476;DHT22;3779;49.216;8.650;2023-12-14T03:56:05;20.30;53.00
7476;DHT22;3779;49.216;8.650;2023-12-14T03:58:51;20.30;53.80
7476;DHT22;3779;49.216;8.650;2023-12-14T04:01:36;20.30;53.80
7476;DHT22;3779;49.216;8.650;2023-12-14T04:04:25;20.30;53.50
7476;DHT22;3779;49.216;8.650;2023-12-14T04:07:11;20.10;51.70
7476;DHT22;3779;49.216;8.650;2023-12-14T04:21:33;20.30;54.00
7476;DHT22;3779;49.216;8.650;2023-12-14T04:24:18;20.30;53.90
7476;DHT22;3779;49.216;8.650;2023-12-14T04:27:04;20.20;52.10
7476;DHT22;3779;49.216;8.650;2023-12-14T04:29:50;20.40;54.10
7476;DHT22;3779;49.216;8.650;2023-12-14T04:32:39;20.20;53.40
7476;DHT22;3779;49.216;8.650;2023-12-14T04:35:24;20.20;53.90
7476;DHT22;3779;49.216;8.650;2023-12-14T04:38:10;20.30;53.90
7476;DHT22;3779;49.216;8.650;2023-12-14T04:57:50;20.30;54.10
7476;DHT22;3779;49.216;8.650;2023-12-14T05:00:35;20.70;54.10
7476;DHT22;3779;49.216;8.650;2023-12-14T05:03:21;20.30;53.80
7476;DHT22;3779;49.216;8.650;2023-12-14T05:06:07;20.30;53.60
7476;DHT22;3779;49.216;8.650;2023-12-14T05:11:49;20.20;54.10
7476;DHT22;3779;49.216;8.650;2023-12-14T05:14:35;20.20;52.80
7476;DHT22;3779;49.216;8.650;2023-12-14T05:17:20;20.20;53.80
7476;DHT22;3779;49.216;8.650;2023-12-14T05:20:09;20.20;53.80
7476;DHT22;3779;49.216;8.650;2023-12-14T05:22:55;20.30;53.90
7476;DHT22;3779;49.216;8.650;2023-12-14T05:28:47;20.30;54.10
7476;DHT22;3779;49.216;8.650;2023-12-14T05:37:25;20.30;53.00
7476;DHT22;3779;49.216;8.650;2023-12-14T05:40:11;20.30;53.60
7476;DHT22;3779;49.216;8.650;2023-12-14T06:06:45;20.30;54.30
7476;DHT22;3779;49.216;8.650;2023-12-14T06:12:19;20.30;53.80
7476;DHT22;3779;49.216;8.650;2023-12-14T06:15:05;20.70;54.00
7476;DHT22;3779;49.216;8.650;2023-12-14T06:36:10;20.30;53.20
7476;DHT22;3779;49.216;8.650;2023-12-14T07:25:16;20.00;53.70
7476;DHT22;3779;49.216;8.650;2023-12-14T07:28:02;20.10;52.40
7476;DHT22;3779;49.216;8.650;2023-12-14T07:30:48;20.20;54.50
7476;DHT22;3779;49.216;8.650;2023-12-14T07:33:34;20.20;53.90
7476;DHT22;3779;49.216;8.650;2023-12-14T07:36:21;20.20;53.90
7476;DHT22;3779;49.216;8.650;2023-12-14T07:39:08;20.50;52.80
7476;DHT22;3779;49.216;8.650;2023-12-14T07:41:54;20.50;54.00
7476;DHT22;3779;49.216;8.650;2023-12-14T07:44:40;20.20;53.50
7476;DHT22;3779;49.216;8.650;2023-12-14T07:47:26;20.30;53.60
7476;DHT22;3779;49.216;8.650;2023-12-14T07:50:11;20.30;53.60
7476;DHT22;3779;49.216;8.650;2023-12-14T07:52:57;20.30;53.20
7476;DHT22;3779;49.216;8.650;2023-12-14T07:55:43;20.30;51.70
7476;DHT22;3779;49.216;8.650;2023-12-14T07:58:29;20.30;53.60
7476;DHT22;3779;49.216;8.650;2023-12-14T08:01:15;20.40;53.00
7476;DHT22;3779;49.216;8.650;2023-12-14T08:04:01;20.60;53.80
7476;DHT22;3779;49.216;8.650;2023-12-14T08:06:47;19.90;53.30
7476;DHT22;3779;49.216;8.650;2023-12-14T08:09:33;20.40;53.00
7476;DHT22;3779;49.216;8.650;2023-12-14T08:12:18;20.40;53.30
7476;DHT22;3779;49.216;8.650;2023-12-14T08:15:04;20.40;53.40
7476;DHT22;3779;49.216;8.650;2023-12-14T08:17:50;20.40;52.80
7476;DHT22;3779;49.216;8.650;2023-12-14T08:20:36;20.40;53.20
7476;DHT22;3779;49.216;8.650;2023-12-14T08:23:22;20.70;53.80
7476;DHT22;3779;49.216;8.650;2023-12-14T08:26:09;20.40;51.40
7476;DHT22;3779;49.216;8.650;2023-12-14T08:28:56;20.60;52.30
7476;DHT22;3779;49.216;8.650;2023-12-14T08:31:42;20.20;53.20
7476;DHT22;3779;49.216;8.650;2023-12-14T08:34:28;20.10;52.30
7476;DHT22;3779;49.216;8.650;2023-12-14T08:37:14;20.10;54.10
7476;DHT22;3779;49.216;8.650;2023-12-14T08:39:59;20.00;51.80
7476;DHT22;3779;49.216;8.650;2023-12-14T08:42:47;20.00;53.60
7476;DHT22;3779;49.216;8.650;2023-12-14T08:45:32;20.50;54.40
7476;DHT22;3779;49.216;8.650;2023-12-14T08:48:19;20.20;53.70
7476;DHT22;3779;49.216;8.650;2023-12-14T08:51:05;20.30;52.90
7476;DHT22;3779;49.216;8.650;2023-12-14T09:44:56;20.30;54.20
7476;DHT22;3779;49.216;8.650;2023-12-14T09:53:33;20.40;54.30
7476;DHT22;3779;49.216;8.650;2023-12-14T10:38:29;19.60;52.10
7476;DHT22;3779;49.216;8.650;2023-12-14T10:41:17;19.90;54.80
7476;DHT22;3779;49.216;8.650;2023-12-14T10:47:06;19.90;55.70
7476;DHT22;3779;49.216;8.650;2023-12-14T11:26:30;20.20;55.60
7476;DHT22;3779;49.216;8.650;2023-12-14T11:29:31;20.50;53.80
7476;DHT22;3779;49.216;8.650;2023-12-14T11:32:19;20.20;55.20
7476;DHT22;3779;49.216;8.650;2023-12-14T11:35:05;20.30;55.10
7476;DHT22;3779;49.216;8.650;2023-12-14T11:37:56;20.30;55.20
7476;DHT22;3779;49.216;8.650;2023-12-14T11:40:48;20.30;55.20
7476;DHT22;3779;49.216;8.650;2023-12-14T11:43:43;20.30;54.90
7476;DHT22;3779;49.216;8.650;2023-12-14T11:46:29;20.70;55.10
7476;DHT22;3779;49.216;8.650;2023-12-14T11:49:16;20.80;55.00
7476;DHT22;3779;49.216;8.650;2023-12-14T11:52:02;20.40;54.70
7476;DHT22;3779;49.216;8.650;2023-12-14T11:54:50;20.40;54.80
7476;DHT22;3779;49.216;8.650;2023-12-14T11:57:36;20.30;54.70
7476;DHT22;3779;49.216;8.650;2023-12-14T12:00:26;20.70;55.10
7476;DHT22;3779;49.216;8.650;2023-12-14T12:03:21;20.60;55.30
7476;DHT22;3779;49.216;8.650;2023-12-14T12:06:19;20.60;54.60
7476;DHT22;3779;49.216;8.650;2023-12-14T12:09:36;20.40;55.00
7476;DHT22;3779;49.216;8.650;2023-12-14T12:12:22;20.40;54.90
7476;DHT22;3779;49.216;8.650;2023-12-14T12:15:08;20.40;53.90
7476;DHT22;3779;49.216;8.650;2023-12-14T12:17:55;20.40;54.70
7476;DHT22;3779;49.216;8.650;2023-12-14T12:20:41;20.50;54.30
7476;DHT22;3779;49.216;8.650;2023-12-14T12:23:27;20.30;54.10
7476;DHT22;3779;49.216;8.650;2023-12-14T12:26:13;20.40;53.90
7476;DHT22;3779;49.216;8.650;2023-12-14T12:28:58;20.40;53.90
7476;DHT22;3779;49.216;8.650;2023-12-14T12:31:44;20.40;54.10
7476;DHT22;3779;49.216;8.650;2023-12-14T12:34:30;20.40;54.60
7476;DHT22;3779;49.216;8.650;2023-12-14T12:37:16;20.40;54.30
7476;DHT22;3779;49.216;8.650;2023-12-14T12:40:02;20.40;54.60
7476;DHT22;3779;49.216;8.650;2023-12-14T12:42:48;20.40;54.80
7476;DHT22;3779;49.216;8.650;2023-12-14T12:45:34;20.40;55.30
7476;DHT22;3779;49.216;8.650;2023-12-14T12:48:20;20.30;54.80
7476;DHT22;3779;49.216;8.650;2023-12-14T12:51:06;20.30;55.00
7476;DHT22;3779;49.216;8.650;2023-12-14T13:02:18;20.40;55.00
7476;DHT22;3779;49.216;8.650;2023-12-14T13:05:06;20.40;54.80
7476;DHT22;3779;49.216;8.650;2023-12-14T13:07:53;20.40;54.80
7476;DHT22;3779;49.216;8.650;2023-12-14T13:10:40;20.40;54.90
7476;DHT22;3779;49.216;8.650;2023-12-14T13:13:32;20.40;54.40
7476;DHT22;3779;49.216;8.650;2023-12-14T13:16:19;20.40;54.60
7476;DHT22;3779;49.216;8.650;2023-12-14T13:19:05;20.40;54.30
7476;DHT22;3779;49.216;8.650;2023-12-14T13:22:17;20.40;54.30
7476;DHT22;3779;49.216;8.650;2023-12-14T13:25:03;20.40;54.40
7476;DHT22;3779;49.216;8.650;2023-12-14T13:27:50;20.40;54.30
7476;DHT22;3779;49.216;8.650;2023-12-14T13:30:36;20.40;54.40
7476;DHT22;3779;49.216;8.650;2023-12-14T13:33:22;20.40;54.10
7476;DHT22;3779;49.216;8.650;2023-12-14T13:36:08;20.40;54.10
7476;DHT22;3779;49.216;8.650;2023-12-14T13:38:54;20.40;54.70
7476;DHT22;3779;49.216;8.650;2023-12-14T13:41:40;20.40;54.70
7476;DHT22;3779;49.216;8.650;2023-12-14T13:44:26;20.60;54.80
7476;DHT22;3779;49.216;8.650;2023-12-14T13:47:11;20.40;54.60
7476;DHT22;3779;49.216;8.650;2023-12-14T13:49:57;20.40;53.40
7476;DHT22;3779;49.216;8.650;2023-12-14T13:52:55;20.60;53.20
7476;DHT22;3779;49.216;8.650;2023-12-14T13:55:41;20.20;54.90
7476;DHT22;3779;49.216;8.650;2023-12-14T13:58:27;20.10;53.60
7476;DHT22;3779;49.216;8.650;2023-12-14T14:01:13;20.10;54.60
7476;DHT22;3779;49.216;8.650;2023-12-14T14:03:58;20.20;54.80
7476;DHT22;3779;49.216;8.650;2023-12-14T14:07:10;20.30;55.10
7476;DHT22;3779;49.216;8.650;2023-12-14T14:09:55;20.40;55.30
7476;DHT22;3779;49.216;8.650;2023-12-14T14:12:41;20.60;54.30
7476;DHT22;3779;49.216;8.650;2023-12-14T14:15:27;20.40;54.80
7476;DHT22;3779;49.216;8.650;2023-12-14T14:18:13;20.40;54.30
7476;DHT22;3779;49.216;8.650;2023-12-14T14:20:59;20.80;54.00
7476;DHT22;3779;49.216;8.650;2023-12-14T14:23:46;20.40;54.80
7476;DHT22;3779;49.216;8.650;2023-12-14T14:26:32;20.40;54.40
7476;DHT22;3779;49.216;8.650;2023-12-14T14:29:18;20.30;54.70
7476;DHT22;3779;49.216;8.650;2023-12-14T14:32:04;20.40;54.00
7476;DHT22;3779;49.216;8.650;2023-12-14T14:34:50;20.40;50.70
7476;DHT22;3779;49.216;8.650;2023-12-14T14:37:36;20.20;54.50
7476;DHT22;3779;49.216;8.650;2023-12-14T14:40:22;20.50;54.60
7476;DHT22;3779;49.216;8.650;2023-12-14T14:43:09;20.30;54.70
7476;DHT22;3779;49.216;8.650;2023-12-14T14:45:55;20.30;54.80
7476;DHT22;3779;49.216;8.650;2023-12-14T14:48:41;20.30;55.00
7476;DHT22;3779;49.216;8.650;2023-12-14T14:51:32;20.30;54.00
7476;DHT22;3779;49.216;8.650;2023-12-14T14:54:18;20.60;55.00
7476;DHT22;3779;49.216;8.650;2023-12-14T14:57:06;20.30;54.30
7476;DHT22;3779;49.216;8.650;2023-12-14T14:59:53;20.40;54.70
7476;DHT22;3779;49.216;8.650;2023-12-14T15:08:17;20.30;55.30
7476;DHT22;3779;49.216;8.650;2023-12-14T15:11:02;20.40;54.10
7476;DHT22;3779;49.216;8.650;2023-12-14T15:13:48;20.30;54.70
7476;DHT22;3779;49.216;8.650;2023-12-14T15:16:36;20.40;54.90
7476;DHT22;3779;49.216;8.650;2023-12-14T15:26:05;20.20;54.90
7476;DHT22;3779;49.216;8.650;2023-12-14T15:28:53;20.30;55.10
7476;DHT22;3779;49.216;8.650;2023-12-14T15:34:39;20.20;55.40
7476;DHT22;3779;49.216;8.650;2023-12-14T15:37:24;20.10;54.10
7476;DHT22;3779;49.216;8.650;2023-12-14T15:40:10;20.10;55.20
7476;DHT22;3779;49.216;8.650;2023-12-14T15:42:56;20.20;54.80
7476;DHT22;3779;49.216;8.650;2023-12-14T15:45:42;20.30;54.50
7476;DHT22;3779;49.216;8.650;2023-12-14T15:48:29;20.40;54.80
7476;DHT22;3779;49.216;8.650;2023-12-14T15:51:14;20.40;54.50
7476;DHT22;3779;49.216;8.650;2023-12-14T15:54:00;20.40;54.60
7476;DHT22;3779;49.216;8.650;2023-12-14T15:56:46;20.40;54.40
7476;DHT22;3779;49.216;8.650;2023-12-14T15:59:32;20.40;54.70
7476;DHT22;3779;49.216;8.650;2023-12-14T16:02:17;20.40;54.50
7476;DHT22;3779;49.216;8.650;2023-12-14T16:05:04;20.40;54.70
7476;DHT22;3779;49.216;8.650;2023-12-14T16:07:49;20.40;54.70
7476;DHT22;3779;49.216;8.650;2023-12-14T16:45:17;20.10;55.80
7476;DHT22;3779;49.216;8.650;2023-12-14T16:48:03;20.10;55.60
7476;DHT22;3779;49.216;8.650;2023-12-14T16:50:50;20.20;54.80
7476;DHT22;3779;49.216;8.650;2023-12-14T16:53:39;20.20;55.20
7476;DHT22;3779;49.216;8.650;2023-12-14T16:56:29;20.30;55.20
7476;DHT22;3779;49.216;8.650;2023-12-14T16:59:15;20.20;54.20
7476;DHT22;3779;49.216;8.650;2023-12-14T17:02:01;20.20;55.20
7476;DHT22;3779;49.216;8.650;2023-12-14T17:04:47;20.10;53.90
7476;DHT22;3779;49.216;8.650;2023-12-14T17:07:32;20.10;55.30
7476;DHT22;3779;49.216;8.650;2023-12-14T17:10:18;20.10;55.30
7476;DHT22;3779;49.216;8.650;2023-12-14T17:13:04;20.10;55.20
7476;DHT22;3779;49.216;8.650;2023-12-14T17:15:49;20.10;55.20
7476;DHT22;3779;49.216;8.650;2023-12-14T17:18:47;20.20;55.30
7476;DHT22;3779;49.216;8.650;2023-12-14T17:21:34;20.20;55.40
7476;DHT22;3779;49.216;8.650;2023-12-14T17:24:20;20.20;55.10
7476;DHT22;3779;49.216;8.650;2023-12-14T17:27:06;20.50;55.50
7476;DHT22;3779;49.216;8.650;2023-12-14T17:29:52;20.20;54.80
7476;DHT22;3779;49.216;8.650;2023-12-14T17:32:39;20.20;55.40
7476;DHT22;3779;49.216;8.650;2023-12-14T17:35:25;20.30;54.50
7476;DHT22;3779;49.216;8.650;2023-12-14T17:38:23;20.30;55.10
7476;DHT22;3779;49.216;8.650;2023-12-14T17:41:13;20.20;55.10
7476;DHT22;3779;49.216;8.650;2023-12-14T17:44:00;20.50;55.80
7476;DHT22;3779;49.216;8.650;2023-12-14T17:46:46;20.40;54.40
7476;DHT22;3779;49.216;8.650;2023-12-14T18:21:24;20.60;56.20
7476;DHT22;3779;49.216;8.650;2023-12-14T18:38:47;20.50;55.70
7476;DHT22;3779;49.216;8.650;2023-12-14T18:41:33;20.50;55.40
7476;DHT22;3779;49.216;8.650;2023-12-14T18:44:18;20.70;55.40
7476;DHT22;3779;49.216;8.650;2023-12-14T18:47:05;20.40;55.50
7476;DHT22;3779;49.216;8.650;2023-12-14T18:55:50;20.40;55.50
7476;DHT22;3779;49.216;8.650;2023-12-14T18:58:36;20.50;54.80
7476;DHT22;3779;49.216;8.650;2023-12-14T19:01:22;20.40;55.10
7476;DHT22;3779;49.216;8.650;2023-12-14T19:10:18;20.40;55.50
7476;DHT22;3779;49.216;8.650;2023-12-14T19:13:04;20.40;55.30
7476;DHT22;3779;49.216;8.650;2023-12-14T19:34:02;20.30;55.30
7476;DHT22;3779;49.216;8.650;2023-12-14T19:36:48;20.30;55.30
7476;DHT22;3779;49.216;8.650;2023-12-14T19:39:34;20.30;55.30
7476;DHT22;3779;49.216;8.650;2023-12-14T19:42:20;20.60;55.50
7476;DHT22;3779;49.216;8.650;2023-12-14T19:45:06;20.30;55.00
7476;DHT22;3779;49.216;8.650;2023-12-14T19:47:52;20.30;55.30
7476;DHT22;3779;49.216;8.650;2023-12-14T19:50:38;20.40;55.10
7476;DHT22;3779;49.216;8.650;2023-12-14T19:53:23;20.30;55.10
7476;DHT22;3779;49.216;8.650;2023-12-14T19:56:09;20.30;55.30
7476;DHT22;3779;49.216;8.650;2023-12-14T19:58:55;20.40;55.30
7476;DHT22;3779;49.216;8.650;2023-12-14T20:01:41;20.30;55.60
7476;DHT22;3779;49.216;8.650;2023-12-14T20:04:27;20.30;55.10
7476;DHT22;3779;49.216;8.650;2023-12-14T20:07:13;20.30;55.40
7476;DHT22;3779;49.216;8.650;2023-12-14T20:09:58;20.30;54.80
7476;DHT22;3779;49.216;8.650;2023-12-14T20:12:44;20.20;54.60
7476;DHT22;3779;49.216;8.650;2023-12-14T20:15:30;20.30;55.20
7476;DHT22;3779;49.216;8.650;2023-12-14T20:18:16;20.30;55.00
7476;DHT22;3779;49.216;8.650;2023-12-14T20:21:02;20.40;54.70
7476;DHT22;3779;49.216;8.650;2023-12-14T20:23:48;20.30;55.20
7476;DHT22;3779;49.216;8.650;2023-12-14T20:26:34;20.30;55.20
7476;DHT22;3779;49.216;8.650;2023-12-14T20:38:09;20.30;55.50
7476;DHT22;3779;49.216;8.650;2023-12-14T20:40:55;20.30;55.20
7476;DHT22;3779;49.216;8.650;2023-12-14T20:43:41;20.50;55.40
7476;DHT22;3779;49.216;8.650;2023-12-14T20:46:27;20.30;55.10
7476;DHT22;3779;49.216;8.650;2023-12-14T20:49:12;20.50;55.70
7476;DHT22;3779;49.216;8.650;2023-12-14T20:51:58;20.30;55.60
7476;DHT22;3779;49.216;8.650;2023-12-14T20:54:47;20.20;55.50
7476;DHT22;3779;49.216;8.650;2023-12-14T20:57:33;20.20;55.50
7476;DHT22;3779;49.216;8.650;2023-12-14T21:00:19;20.50;55.80
7476;DHT22;3779;49.216;8.650;2023-12-14T21:03:04;20.20;55.60
7476;DHT22;3779;49.216;8.650;2023-12-14T21:05:52;20.20;55.70
7476;DHT22;3779;49.216;8.650;2023-12-14T21:08:37;20.20;55.80
7476;DHT22;3779;49.216;8.650;2023-12-14T21:11:23;20.20;55.60
7476;DHT22;3779;49.216;8.650;2023-12-14T21:14:10;20.30;55.60
7476;DHT22;3779;49.216;8.650;2023-12-14T21:16:58;20.30;55.50
7476;DHT22;3779;49.216;8.650;2023-12-14T21:19:51;20.70;55.00
7476;DHT22;3779;49.216;8.650;2023-12-14T21:22:37;20.20;55.60
7476;DHT22;3779;49.216;8.650;2023-12-14T21:25:22;20.20;55.40
7476;DHT22;3779;49.216;8.650;2023-12-14T21:28:12;20.20;55.50
7476;DHT22;3779;49.216;8.650;2023-12-14T21:30:58;20.10;55.70
7476;DHT22;3779;49.216;8.650;2023-12-14T21:33:44;20.00;55.70
7476;DHT22;3779;49.216;8.650;2023-12-14T21:36:30;20.10;56.00
7476;DHT22;3779;49.216;8.650;2023-12-14T21:39:15;20.00;56.10
7476;DHT22;3779;49.216;8.650;2023-12-14T21:42:01;20.00;56.10
7476;DHT22;3779;49.216;8.650;2023-12-14T21:44:47;20.10;56.10
7476;DHT22;3779;49.216;8.650;2023-12-14T21:47:33;20.20;56.00
7476;DHT22;3779;49.216;8.650;2023-12-14T21:50:19;20.30;55.90
7476;DHT22;3779;49.216;8.650;2023-12-14T21:53:06;20.00;56.00
7476;DHT22;3779;49.216;8.650;2023-12-14T21:55:52;20.40;56.10
7476;DHT22;3779;49.216;8.650;2023-12-14T21:58:39;20.10;55.90
7476;DHT22;3779;49.216;8.650;2023-12-14T22:01:25;20.10;55.80
7476;DHT22;3779;49.216;8.650;2023-12-14T22:04:10;20.20;55.70
7476;DHT22;3779;49.216;8.650;2023-12-14T22:06:56;20.10;55.70
7476;DHT22;3779;49.216;8.650;2023-12-14T22:09:42;20.10;55.70
7476;DHT22;3779;49.216;8.650;2023-12-14T22:12:28;20.20;55.50
7476;DHT22;3779;49.216;8.650;2023-12-14T22:15:14;20.50;56.00
7476;DHT22;3779;49.216;8.650;2023-12-14T22:18:00;20.40;55.80
7476;DHT22;3779;49.216;8.650;2023-12-14T22:20:46;20.20;55.50
7476;DHT22;3779;49.216;8.650;2023-12-14T22:23:31;20.20;55.20
7476;DHT22;3779;49.216;8.650;2023-12-14T22:26:17;20.40;55.40
7476;DHT22;3779;49.216;8.650;2023-12-14T22:29:03;20.60;55.50
7476;DHT22;3779;49.216;8.650;2023-12-14T22:31:49;20.30;56.00
7476;DHT22;3779;49.216;8.650;2023-12-14T22:34:35;20.30;55.00
7476;DHT22;3779;49.216;8.650;2023-12-14T22:37:20;20.70;55.30
7476;DHT22;3779;49.216;8.650;2023-12-14T22:40:07;20.40;54.90
7476;DHT22;3779;49.216;8.650;2023-12-14T22:42:55;20.40;55.00
7476;DHT22;3779;49.216;8.650;2023-12-14T22:45:41;20.40;55.00
7476;DHT22;3779;49.216;8.650;2023-12-14T22:48:27;20.60;55.10
7476;DHT22;3779;49.216;8.650;2023-12-14T22:51:17;20.40;55.00
7476;DHT22;3779;49.216;8.650;2023-12-14T22:54:03;20.60;55.50
7476;DHT22;3779;49.216;8.650;2023-12-14T22:56:49;20.30;55.10
7476;DHT22;3779;49.216;8.650;2023-12-14T22:59:37;20.50;55.10
7476;DHT22;3779;49.216;8.650;2023-12-14T23:02:24;20.30;55.20
7476;DHT22;3779;49.216;8.650;2023-12-14T23:05:12;20.30;55.00
7476;DHT22;3779;49.216;8.650;2023-12-14T23:07:58;20.30;54.60
7476;DHT22;3779;49.216;8.650;2023-12-14T23:10:44;20.40;54.90
7476;DHT22;3779;49.216;8.650;2023-12-14T23:13:30;20.40;55.10
7476;DHT22;3779;49.216;8.650;2023-12-14T23:16:16;20.30;54.90
7476;DHT22;3779;49.216;8.650;2023-12-14T23:19:01;20.30;54.90
7476;DHT22;3779;49.216;8.650;2023-12-14T23:21:47;20.40;54.80
7476;DHT22;3779;49.216;8.650;2023-12-14T23:24:33;20.40;54.70
7476;DHT22;3779;49.216;8.650;2023-12-14T23:27:19;20.40;54.70
7476;DHT22;3779;49.216;8.650;2023-12-14T23:30:05;20.40;54.80
7476;DHT22;3779;49.216;8.650;2023-12-14T23:32:51;20.40;54.80
7476;DHT22;3779;49.216;8.650;2023-12-14T23:35:37;20.30;54.80
7476;DHT22;3779;49.216;8.650;2023-12-14T23:38:22;20.30;54.90
7476;DHT22;3779;49.216;8.650;2023-12-14T23:41:08;20.40;54.70
7476;DHT22;3779;49.216;8.650;2023-12-14T23:43:54;20.30;54.90
7476;DHT22;3779;49.216;8.650;2023-12-14T23:46:40;20.30;55.10
7476;DHT22;3779;49.216;8.650;2023-12-14T23:49:26;20.30;54.80
7476;DHT22;3779;49.216;8.650;2023-12-14T23:52:12;20.30;54.80
7476;DHT22;3779;49.216;8.650;2023-12-14T23:54:57;20.30;55.00
7476;DHT22;3779;49.216;8.650;2023-12-14T23:57:43;20.30;54.80
